sensor_id;sensor_type;location;lat;lon;timestamp;P1;durP1;ratioP1;P2;durP2;ratioP2
37065;SDS011;22981;43.080;25.550;2024-02-21T00:01:58;78.65;;;53.75;;
37065;SDS011;22981;43.080;25.550;2024-02-21T00:04:25;78.65;;;53.23;;
37065;SDS011;22981;43.080;25.550;2024-02-21T00:06:53;73.70;;;53.23;;
37065;SDS011;22981;43.080;25.550;2024-02-21T00:09:21;71.12;;;51.15;;
37065;SDS011;22981;43.080;25.550;2024-02-21T00:11:48;70.37;;;51.75;;
37065;SDS011;22981;43.080;25.550;2024-02-21T00:14:16;69.35;;;51.58;;
37065;SDS011;22981;43.080;25.550;2024-02-21T00:16:43;72.15;;;51.15;;
37065;SDS011;22981;43.080;25.550;2024-02-21T00:19:11;67.72;;;50.38;;
37065;SDS011;22981;43.080;25.550;2024-02-21T00:21:40;65.95;;;47.35;;
37065;SDS011;22981;43.080;25.550;2024-02-21T00:24:08;64.35;;;47.43;;
37065;SDS011;22981;43.080;25.550;2024-02-21T00:26:35;69.75;;;48.73;;
37065;SDS011;22981;43.080;25.550;2024-02-21T00:29:03;71.30;;;52.08;;
37065;SDS011;22981;43.080;25.550;2024-02-21T00:31:31;78.62;;;52.25;;
37065;SDS011;22981;43.080;25.550;2024-02-21T00:33:58;77.42;;;51.28;;
37065;SDS011;22981;43.080;25.550;2024-02-21T00:36:26;74.65;;;52.75;;
37065;SDS011;22981;43.080;25.550;2024-02-21T00:38:53;66.75;;;45.88;;
37065;SDS011;22981;43.080;25.550;2024-02-21T00:41:21;66.60;;;47.75;;
37065;SDS011;22981;43.080;25.550;2024-02-21T00:43:49;63.73;;;46.92;;
37065;SDS011;22981;43.080;25.550;2024-02-21T00:46:16;59.83;;;43.68;;
37065;SDS011;22981;43.080;25.550;2024-02-21T00:48:44;64.92;;;45.92;;
37065;SDS011;22981;43.080;25.550;2024-02-21T00:51:11;67.25;;;48.25;;
37065;SDS011;22981;43.080;25.550;2024-02-21T00:53:39;66.72;;;44.95;;
37065;SDS011;22981;43.080;25.550;2024-02-21T00:56:06;66.53;;;46.28;;
37065;SDS011;22981;43.080;25.550;2024-02-21T00:58:34;78.62;;;51.05;;
37065;SDS011;22981;43.080;25.550;2024-02-21T01:01:02;70.12;;;49.58;;
37065;SDS011;22981;43.080;25.550;2024-02-21T01:03:29;67.35;;;47.80;;
37065;SDS011;22981;43.080;25.550;2024-02-21T01:05:57;64.53;;;46.63;;
37065;SDS011;22981;43.080;25.550;2024-02-21T01:08:24;63.23;;;44.63;;
37065;SDS011;22981;43.080;25.550;2024-02-21T01:10:52;62.17;;;44.95;;
37065;SDS011;22981;43.080;25.550;2024-02-21T01:13:19;60.03;;;45.20;;
37065;SDS011;22981;43.080;25.550;2024-02-21T01:15:47;60.03;;;45.25;;
37065;SDS011;22981;43.080;25.550;2024-02-21T01:18:14;56.68;;;42.50;;
37065;SDS011;22981;43.080;25.550;2024-02-21T01:20:42;64.95;;;45.92;;
37065;SDS011;22981;43.080;25.550;2024-02-21T01:23:10;67.55;;;47.78;;
37065;SDS011;22981;43.080;25.550;2024-02-21T01:25:37;78.05;;;51.02;;
37065;SDS011;22981;43.080;25.550;2024-02-21T01:28:05;76.40;;;51.58;;
37065;SDS011;22981;43.080;25.550;2024-02-21T01:30:32;69.62;;;47.30;;
37065;SDS011;22981;43.080;25.550;2024-02-21T01:33:00;71.87;;;46.40;;
37065;SDS011;22981;43.080;25.550;2024-02-21T01:35:27;69.05;;;45.85;;
37065;SDS011;22981;43.080;25.550;2024-02-21T01:37:55;71.92;;;48.63;;
37065;SDS011;22981;43.080;25.550;2024-02-21T01:40:22;70.40;;;47.27;;
37065;SDS011;22981;43.080;25.550;2024-02-21T01:42:50;67.27;;;45.35;;
37065;SDS011;22981;43.080;25.550;2024-02-21T01:45:20;63.38;;;43.75;;
37065;SDS011;22981;43.080;25.550;2024-02-21T01:47:48;64.10;;;43.15;;
37065;SDS011;22981;43.080;25.550;2024-02-21T01:50:16;62.35;;;42.45;;
37065;SDS011;22981;43.080;25.550;2024-02-21T01:52:45;58.95;;;40.65;;
37065;SDS011;22981;43.080;25.550;2024-02-21T01:55:15;54.50;;;38.60;;
37065;SDS011;22981;43.080;25.550;2024-02-21T01:57:43;49.53;;;36.23;;
37065;SDS011;22981;43.080;25.550;2024-02-21T02:00:11;54.77;;;37.20;;
37065;SDS011;22981;43.080;25.550;2024-02-21T02:02:41;48.68;;;35.08;;
37065;SDS011;22981;43.080;25.550;2024-02-21T02:05:10;45.98;;;34.92;;
37065;SDS011;22981;43.080;25.550;2024-02-21T02:07:37;47.88;;;33.58;;
37065;SDS011;22981;43.080;25.550;2024-02-21T02:10:05;48.02;;;34.83;;
37065;SDS011;22981;43.080;25.550;2024-02-21T02:12:35;42.35;;;32.45;;
37065;SDS011;22981;43.080;25.550;2024-02-21T02:15:03;41.20;;;30.23;;
37065;SDS011;22981;43.080;25.550;2024-02-21T02:17:31;43.85;;;32.95;;
37065;SDS011;22981;43.080;25.550;2024-02-21T02:19:59;50.40;;;35.90;;
37065;SDS011;22981;43.080;25.550;2024-02-21T02:22:28;63.40;;;40.43;;
37065;SDS011;22981;43.080;25.550;2024-02-21T02:24:57;71.28;;;48.35;;
37065;SDS011;22981;43.080;25.550;2024-02-21T02:27:25;57.05;;;41.05;;
37065;SDS011;22981;43.080;25.550;2024-02-21T02:29:53;49.00;;;35.45;;
37065;SDS011;22981;43.080;25.550;2024-02-21T02:32:20;56.23;;;38.48;;
37065;SDS011;22981;43.080;25.550;2024-02-21T02:34:48;53.95;;;39.13;;
37065;SDS011;22981;43.080;25.550;2024-02-21T02:37:15;53.20;;;37.03;;
37065;SDS011;22981;43.080;25.550;2024-02-21T02:39:43;49.13;;;36.85;;
37065;SDS011;22981;43.080;25.550;2024-02-21T02:42:10;44.98;;;35.23;;
37065;SDS011;22981;43.080;25.550;2024-02-21T02:44:38;43.25;;;33.50;;
37065;SDS011;22981;43.080;25.550;2024-02-21T02:47:06;47.27;;;33.60;;
37065;SDS011;22981;43.080;25.550;2024-02-21T02:49:33;42.15;;;31.90;;
37065;SDS011;22981;43.080;25.550;2024-02-21T02:52:01;45.92;;;31.75;;
37065;SDS011;22981;43.080;25.550;2024-02-21T02:54:28;42.38;;;32.10;;
37065;SDS011;22981;43.080;25.550;2024-02-21T02:56:56;41.63;;;31.75;;
37065;SDS011;22981;43.080;25.550;2024-02-21T02:59:23;47.60;;;35.52;;
37065;SDS011;22981;43.080;25.550;2024-02-21T03:01:51;48.68;;;35.80;;
37065;SDS011;22981;43.080;25.550;2024-02-21T03:04:19;47.40;;;34.55;;
37065;SDS011;22981;43.080;25.550;2024-02-21T03:06:46;46.75;;;32.20;;
37065;SDS011;22981;43.080;25.550;2024-02-21T03:09:14;47.08;;;33.63;;
37065;SDS011;22981;43.080;25.550;2024-02-21T03:11:42;48.83;;;34.67;;
37065;SDS011;22981;43.080;25.550;2024-02-21T03:14:10;44.83;;;32.23;;
37065;SDS011;22981;43.080;25.550;2024-02-21T03:16:38;49.70;;;34.45;;
37065;SDS011;22981;43.080;25.550;2024-02-21T03:19:05;49.45;;;35.25;;
37065;SDS011;22981;43.080;25.550;2024-02-21T03:21:33;42.20;;;31.57;;
37065;SDS011;22981;43.080;25.550;2024-02-21T03:24:00;42.17;;;32.10;;
37065;SDS011;22981;43.080;25.550;2024-02-21T03:26:28;44.05;;;31.65;;
37065;SDS011;22981;43.080;25.550;2024-02-21T03:28:55;45.78;;;32.10;;
37065;SDS011;22981;43.080;25.550;2024-02-21T03:31:23;50.50;;;33.05;;
37065;SDS011;22981;43.080;25.550;2024-02-21T03:33:51;48.50;;;33.98;;
37065;SDS011;22981;43.080;25.550;2024-02-21T03:36:18;45.65;;;32.67;;
37065;SDS011;22981;43.080;25.550;2024-02-21T03:38:46;46.05;;;32.58;;
37065;SDS011;22981;43.080;25.550;2024-02-21T03:41:13;42.90;;;30.82;;
37065;SDS011;22981;43.080;25.550;2024-02-21T03:43:41;49.93;;;36.08;;
37065;SDS011;22981;43.080;25.550;2024-02-21T03:46:08;88.33;;;55.20;;
37065;SDS011;22981;43.080;25.550;2024-02-21T03:48:36;56.42;;;39.05;;
37065;SDS011;22981;43.080;25.550;2024-02-21T03:51:04;62.93;;;44.05;;
37065;SDS011;22981;43.080;25.550;2024-02-21T03:53:32;62.23;;;42.67;;
37065;SDS011;22981;43.080;25.550;2024-02-21T03:56:03;64.80;;;43.40;;
37065;SDS011;22981;43.080;25.550;2024-02-21T03:58:31;57.33;;;40.75;;
37065;SDS011;22981;43.080;25.550;2024-02-21T04:01:02;55.12;;;40.55;;
37065;SDS011;22981;43.080;25.550;2024-02-21T04:03:30;58.55;;;40.78;;
37065;SDS011;22981;43.080;25.550;2024-02-21T04:05:57;57.43;;;39.23;;
37065;SDS011;22981;43.080;25.550;2024-02-21T04:08:25;58.48;;;41.75;;
37065;SDS011;22981;43.080;25.550;2024-02-21T04:10:53;73.90;;;47.20;;
37065;SDS011;22981;43.080;25.550;2024-02-21T04:13:21;62.93;;;43.92;;
37065;SDS011;22981;43.080;25.550;2024-02-21T04:15:48;63.00;;;42.55;;
37065;SDS011;22981;43.080;25.550;2024-02-21T04:18:16;61.13;;;44.38;;
37065;SDS011;22981;43.080;25.550;2024-02-21T04:20:44;61.28;;;40.95;;
37065;SDS011;22981;43.080;25.550;2024-02-21T04:23:11;57.33;;;40.48;;
37065;SDS011;22981;43.080;25.550;2024-02-21T04:25:39;57.13;;;39.00;;
37065;SDS011;22981;43.080;25.550;2024-02-21T04:28:07;57.38;;;39.53;;
37065;SDS011;22981;43.080;25.550;2024-02-21T04:30:34;52.13;;;37.13;;
37065;SDS011;22981;43.080;25.550;2024-02-21T04:33:02;53.98;;;40.75;;
37065;SDS011;22981;43.080;25.550;2024-02-21T04:35:30;62.08;;;42.33;;
37065;SDS011;22981;43.080;25.550;2024-02-21T04:37:57;64.17;;;43.65;;
37065;SDS011;22981;43.080;25.550;2024-02-21T04:40:25;71.10;;;47.78;;
37065;SDS011;22981;43.080;25.550;2024-02-21T04:42:52;67.25;;;44.45;;
37065;SDS011;22981;43.080;25.550;2024-02-21T04:45:20;64.85;;;43.70;;
37065;SDS011;22981;43.080;25.550;2024-02-21T04:47:48;79.40;;;48.65;;
37065;SDS011;22981;43.080;25.550;2024-02-21T04:50:15;89.22;;;53.87;;
37065;SDS011;22981;43.080;25.550;2024-02-21T04:52:43;88.92;;;53.58;;
37065;SDS011;22981;43.080;25.550;2024-02-21T04:55:11;94.32;;;56.75;;
37065;SDS011;22981;43.080;25.550;2024-02-21T04:57:38;82.22;;;53.08;;
37065;SDS011;22981;43.080;25.550;2024-02-21T05:00:06;82.72;;;53.45;;
37065;SDS011;22981;43.080;25.550;2024-02-21T05:02:34;79.47;;;52.80;;
37065;SDS011;22981;43.080;25.550;2024-02-21T05:05:02;75.28;;;49.08;;
37065;SDS011;22981;43.080;25.550;2024-02-21T05:07:30;76.12;;;50.05;;
37065;SDS011;22981;43.080;25.550;2024-02-21T05:09:58;77.70;;;48.95;;
37065;SDS011;22981;43.080;25.550;2024-02-21T05:12:25;94.90;;;56.65;;
37065;SDS011;22981;43.080;25.550;2024-02-21T05:14:53;85.38;;;54.15;;
37065;SDS011;22981;43.080;25.550;2024-02-21T05:17:20;93.82;;;57.73;;
37065;SDS011;22981;43.080;25.550;2024-02-21T05:19:48;95.55;;;51.37;;
37065;SDS011;22981;43.080;25.550;2024-02-21T05:22:16;85.07;;;49.80;;
37065;SDS011;22981;43.080;25.550;2024-02-21T05:24:43;86.90;;;47.80;;
37065;SDS011;22981;43.080;25.550;2024-02-21T05:27:11;90.62;;;48.90;;
37065;SDS011;22981;43.080;25.550;2024-02-21T05:29:38;135.07;;;53.25;;
37065;SDS011;22981;43.080;25.550;2024-02-21T05:32:06;90.45;;;50.85;;
37065;SDS011;22981;43.080;25.550;2024-02-21T05:34:33;103.42;;;54.98;;
37065;SDS011;22981;43.080;25.550;2024-02-21T05:37:01;146.80;;;48.87;;
37065;SDS011;22981;43.080;25.550;2024-02-21T05:39:28;161.82;;;53.58;;
37065;SDS011;22981;43.080;25.550;2024-02-21T05:41:56;147.02;;;53.08;;
37065;SDS011;22981;43.080;25.550;2024-02-21T05:44:24;207.32;;;55.55;;
37065;SDS011;22981;43.080;25.550;2024-02-21T05:46:52;106.20;;;56.65;;
37065;SDS011;22981;43.080;25.550;2024-02-21T05:49:20;144.37;;;56.35;;
37065;SDS011;22981;43.080;25.550;2024-02-21T05:51:49;96.85;;;52.43;;
37065;SDS011;22981;43.080;25.550;2024-02-21T05:54:16;234.35;;;70.08;;
37065;SDS011;22981;43.080;25.550;2024-02-21T05:56:44;203.67;;;48.52;;
37065;SDS011;22981;43.080;25.550;2024-02-21T05:59:12;119.50;;;46.80;;
37065;SDS011;22981;43.080;25.550;2024-02-21T06:01:40;184.65;;;89.80;;
37065;SDS011;22981;43.080;25.550;2024-02-21T06:04:07;137.52;;;48.10;;
37065;SDS011;22981;43.080;25.550;2024-02-21T06:06:35;140.60;;;38.00;;
37065;SDS011;22981;43.080;25.550;2024-02-21T06:09:02;116.15;;;36.83;;
37065;SDS011;22981;43.080;25.550;2024-02-21T06:11:30;60.88;;;35.60;;
37065;SDS011;22981;43.080;25.550;2024-02-21T06:13:58;52.88;;;35.30;;
37065;SDS011;22981;43.080;25.550;2024-02-21T06:16:26;70.00;;;35.90;;
37065;SDS011;22981;43.080;25.550;2024-02-21T06:18:53;46.35;;;32.98;;
37065;SDS011;22981;43.080;25.550;2024-02-21T06:21:21;116.57;;;40.33;;
37065;SDS011;22981;43.080;25.550;2024-02-21T06:23:49;70.28;;;34.80;;
37065;SDS011;22981;43.080;25.550;2024-02-21T06:26:16;49.03;;;31.57;;
37065;SDS011;22981;43.080;25.550;2024-02-21T06:28:44;42.90;;;29.12;;
37065;SDS011;22981;43.080;25.550;2024-02-21T06:31:12;35.15;;;28.20;;
37065;SDS011;22981;43.080;25.550;2024-02-21T06:33:41;34.67;;;27.30;;
37065;SDS011;22981;43.080;25.550;2024-02-21T06:36:09;35.10;;;28.57;;
37065;SDS011;22981;43.080;25.550;2024-02-21T06:38:36;39.55;;;29.63;;
37065;SDS011;22981;43.080;25.550;2024-02-21T06:41:04;43.87;;;33.05;;
37065;SDS011;22981;43.080;25.550;2024-02-21T06:43:32;42.48;;;32.05;;
37065;SDS011;22981;43.080;25.550;2024-02-21T06:46:00;39.80;;;30.12;;
37065;SDS011;22981;43.080;25.550;2024-02-21T06:48:27;45.15;;;33.08;;
37065;SDS011;22981;43.080;25.550;2024-02-21T06:50:55;52.00;;;36.45;;
37065;SDS011;22981;43.080;25.550;2024-02-21T06:53:23;55.28;;;39.30;;
37065;SDS011;22981;43.080;25.550;2024-02-21T06:55:50;64.67;;;44.93;;
37065;SDS011;22981;43.080;25.550;2024-02-21T06:58:18;61.92;;;45.70;;
37065;SDS011;22981;43.080;25.550;2024-02-21T07:00:45;53.05;;;39.15;;
37065;SDS011;22981;43.080;25.550;2024-02-21T07:03:13;52.35;;;39.88;;
37065;SDS011;22981;43.080;25.550;2024-02-21T07:05:40;53.98;;;41.50;;
37065;SDS011;22981;43.080;25.550;2024-02-21T07:08:08;53.25;;;39.73;;
37065;SDS011;22981;43.080;25.550;2024-02-21T07:10:35;51.58;;;38.15;;
37065;SDS011;22981;43.080;25.550;2024-02-21T07:13:03;57.25;;;41.73;;
37065;SDS011;22981;43.080;25.550;2024-02-21T07:15:30;54.73;;;40.35;;
37065;SDS011;22981;43.080;25.550;2024-02-21T07:17:58;58.00;;;43.02;;
37065;SDS011;22981;43.080;25.550;2024-02-21T07:20:26;81.82;;;50.65;;
37065;SDS011;22981;43.080;25.550;2024-02-21T07:22:54;57.13;;;39.35;;
37065;SDS011;22981;43.080;25.550;2024-02-21T07:25:22;70.20;;;45.17;;
37065;SDS011;22981;43.080;25.550;2024-02-21T07:27:49;53.68;;;37.28;;
37065;SDS011;22981;43.080;25.550;2024-02-21T07:30:17;58.30;;;39.85;;
37065;SDS011;22981;43.080;25.550;2024-02-21T07:32:44;72.25;;;45.38;;
37065;SDS011;22981;43.080;25.550;2024-02-21T07:35:12;58.52;;;43.30;;
37065;SDS011;22981;43.080;25.550;2024-02-21T07:37:39;55.20;;;40.23;;
37065;SDS011;22981;43.080;25.550;2024-02-21T07:40:12;52.23;;;39.45;;
37065;SDS011;22981;43.080;25.550;2024-02-21T07:42:37;52.25;;;39.45;;
37065;SDS011;22981;43.080;25.550;2024-02-21T07:45:05;54.35;;;40.00;;
37065;SDS011;22981;43.080;25.550;2024-02-21T07:47:36;52.75;;;38.17;;
37065;SDS011;22981;43.080;25.550;2024-02-21T07:50:04;52.10;;;38.20;;
37065;SDS011;22981;43.080;25.550;2024-02-21T07:52:32;54.73;;;38.90;;
37065;SDS011;22981;43.080;25.550;2024-02-21T07:55:00;58.13;;;41.50;;
37065;SDS011;22981;43.080;25.550;2024-02-21T07:57:29;50.50;;;38.00;;
37065;SDS011;22981;43.080;25.550;2024-02-21T07:59:56;64.20;;;44.67;;
37065;SDS011;22981;43.080;25.550;2024-02-21T08:02:24;50.23;;;37.35;;
37065;SDS011;22981;43.080;25.550;2024-02-21T08:04:51;52.10;;;37.73;;
37065;SDS011;22981;43.080;25.550;2024-02-21T08:07:19;47.13;;;36.95;;
37065;SDS011;22981;43.080;25.550;2024-02-21T08:09:46;45.52;;;33.73;;
37065;SDS011;22981;43.080;25.550;2024-02-21T08:12:14;43.38;;;33.40;;
37065;SDS011;22981;43.080;25.550;2024-02-21T08:14:42;46.25;;;33.63;;
37065;SDS011;22981;43.080;25.550;2024-02-21T08:17:09;40.73;;;32.63;;
37065;SDS011;22981;43.080;25.550;2024-02-21T08:19:37;41.77;;;31.50;;
37065;SDS011;22981;43.080;25.550;2024-02-21T08:22:04;37.73;;;30.70;;
37065;SDS011;22981;43.080;25.550;2024-02-21T08:24:32;37.05;;;28.35;;
37065;SDS011;22981;43.080;25.550;2024-02-21T08:27:00;40.30;;;29.50;;
37065;SDS011;22981;43.080;25.550;2024-02-21T08:29:28;31.68;;;24.05;;
37065;SDS011;22981;43.080;25.550;2024-02-21T08:31:55;23.70;;;19.57;;
37065;SDS011;22981;43.080;25.550;2024-02-21T08:34:23;23.20;;;18.15;;
37065;SDS011;22981;43.080;25.550;2024-02-21T08:36:50;20.10;;;16.70;;
37065;SDS011;22981;43.080;25.550;2024-02-21T08:39:18;22.50;;;17.80;;
37065;SDS011;22981;43.080;25.550;2024-02-21T08:41:45;25.68;;;18.82;;
37065;SDS011;22981;43.080;25.550;2024-02-21T08:44:13;23.07;;;16.97;;
37065;SDS011;22981;43.080;25.550;2024-02-21T08:46:40;17.82;;;14.47;;
37065;SDS011;22981;43.080;25.550;2024-02-21T08:49:09;21.35;;;16.70;;
37065;SDS011;22981;43.080;25.550;2024-02-21T08:51:37;21.00;;;15.88;;
37065;SDS011;22981;43.080;25.550;2024-02-21T08:54:05;20.25;;;15.75;;
37065;SDS011;22981;43.080;25.550;2024-02-21T08:56:33;20.55;;;14.60;;
37065;SDS011;22981;43.080;25.550;2024-02-21T08:59:01;18.65;;;14.58;;
37065;SDS011;22981;43.080;25.550;2024-02-21T09:01:29;16.15;;;13.53;;
37065;SDS011;22981;43.080;25.550;2024-02-21T09:03:56;14.35;;;12.00;;
37065;SDS011;22981;43.080;25.550;2024-02-21T09:06:24;12.88;;;10.90;;
37065;SDS011;22981;43.080;25.550;2024-02-21T09:08:55;13.08;;;11.45;;
37065;SDS011;22981;43.080;25.550;2024-02-21T09:11:23;11.25;;;10.00;;
37065;SDS011;22981;43.080;25.550;2024-02-21T09:13:53;14.65;;;11.08;;
37065;SDS011;22981;43.080;25.550;2024-02-21T09:16:20;10.80;;;9.70;;
37065;SDS011;22981;43.080;25.550;2024-02-21T09:18:48;12.82;;;10.65;;
37065;SDS011;22981;43.080;25.550;2024-02-21T09:21:16;13.08;;;10.78;;
37065;SDS011;22981;43.080;25.550;2024-02-21T09:23:44;11.48;;;8.93;;
37065;SDS011;22981;43.080;25.550;2024-02-21T09:26:12;10.05;;;8.85;;
37065;SDS011;22981;43.080;25.550;2024-02-21T09:28:42;9.90;;;8.33;;
37065;SDS011;22981;43.080;25.550;2024-02-21T09:31:12;11.60;;;9.55;;
37065;SDS011;22981;43.080;25.550;2024-02-21T09:33:40;13.10;;;10.08;;
37065;SDS011;22981;43.080;25.550;2024-02-21T09:36:07;10.85;;;8.55;;
37065;SDS011;22981;43.080;25.550;2024-02-21T09:38:35;10.15;;;9.10;;
37065;SDS011;22981;43.080;25.550;2024-02-21T09:41:13;10.93;;;8.50;;
37065;SDS011;22981;43.080;25.550;2024-02-21T09:43:44;10.82;;;8.98;;
37065;SDS011;22981;43.080;25.550;2024-02-21T09:46:16;9.78;;;8.73;;
37065;SDS011;22981;43.080;25.550;2024-02-21T09:49:46;9.05;;;7.45;;
37065;SDS011;22981;43.080;25.550;2024-02-21T09:51:32;12.82;;;10.38;;
37065;SDS011;22981;43.080;25.550;2024-02-21T09:54:01;12.28;;;10.32;;
37065;SDS011;22981;43.080;25.550;2024-02-21T09:56:30;12.00;;;9.83;;
37065;SDS011;22981;43.080;25.550;2024-02-21T09:58:58;11.03;;;9.70;;
37065;SDS011;22981;43.080;25.550;2024-02-21T10:01:26;11.03;;;9.90;;
37065;SDS011;22981;43.080;25.550;2024-02-21T10:03:53;11.28;;;9.30;;
37065;SDS011;22981;43.080;25.550;2024-02-21T10:06:21;11.63;;;9.75;;
37065;SDS011;22981;43.080;25.550;2024-02-21T10:08:52;10.48;;;9.10;;
37065;SDS011;22981;43.080;25.550;2024-02-21T10:11:24;10.45;;;9.35;;
37065;SDS011;22981;43.080;25.550;2024-02-21T10:14:02;10.28;;;8.83;;
37065;SDS011;22981;43.080;25.550;2024-02-21T10:16:33;11.63;;;10.10;;
37065;SDS011;22981;43.080;25.550;2024-02-21T10:19:02;10.63;;;9.40;;
37065;SDS011;22981;43.080;25.550;2024-02-21T10:21:30;10.80;;;9.70;;
37065;SDS011;22981;43.080;25.550;2024-02-21T10:23:57;10.70;;;8.63;;
37065;SDS011;22981;43.080;25.550;2024-02-21T10:26:25;11.30;;;9.83;;
37065;SDS011;22981;43.080;25.550;2024-02-21T10:28:53;11.40;;;9.50;;
37065;SDS011;22981;43.080;25.550;2024-02-21T10:31:22;11.12;;;9.83;;
37065;SDS011;22981;43.080;25.550;2024-02-21T10:33:54;12.60;;;10.80;;
37065;SDS011;22981;43.080;25.550;2024-02-21T10:36:22;13.05;;;11.53;;
37065;SDS011;22981;43.080;25.550;2024-02-21T10:38:51;14.10;;;10.72;;
37065;SDS011;22981;43.080;25.550;2024-02-21T10:41:20;14.90;;;11.65;;
37065;SDS011;22981;43.080;25.550;2024-02-21T10:43:53;13.50;;;10.88;;
37065;SDS011;22981;43.080;25.550;2024-02-21T10:46:21;12.50;;;10.75;;
37065;SDS011;22981;43.080;25.550;2024-02-21T10:49:23;13.50;;;11.97;;
37065;SDS011;22981;43.080;25.550;2024-02-21T10:51:30;12.33;;;10.95;;
37065;SDS011;22981;43.080;25.550;2024-02-21T10:54:09;13.45;;;11.80;;
37065;SDS011;22981;43.080;25.550;2024-02-21T10:56:34;13.90;;;12.23;;
37065;SDS011;22981;43.080;25.550;2024-02-21T10:59:03;14.93;;;11.83;;
37065;SDS011;22981;43.080;25.550;2024-02-21T11:01:32;12.95;;;10.70;;
37065;SDS011;22981;43.080;25.550;2024-02-21T11:04:02;12.73;;;10.88;;
37065;SDS011;22981;43.080;25.550;2024-02-21T11:06:31;12.35;;;10.38;;
37065;SDS011;22981;43.080;25.550;2024-02-21T11:09:07;12.73;;;10.25;;
37065;SDS011;22981;43.080;25.550;2024-02-21T11:11:37;14.03;;;10.80;;
37065;SDS011;22981;43.080;25.550;2024-02-21T11:16:36;14.03;;;11.88;;
37065;SDS011;22981;43.080;25.550;2024-02-21T11:19:18;13.30;;;11.45;;
37065;SDS011;22981;43.080;25.550;2024-02-21T11:21:36;14.00;;;11.22;;
37065;SDS011;22981;43.080;25.550;2024-02-21T11:24:06;13.83;;;11.70;;
37065;SDS011;22981;43.080;25.550;2024-02-21T11:26:36;13.62;;;11.18;;
37065;SDS011;22981;43.080;25.550;2024-02-21T11:29:08;12.37;;;10.90;;
37065;SDS011;22981;43.080;25.550;2024-02-21T11:31:40;13.75;;;10.95;;
37065;SDS011;22981;43.080;25.550;2024-02-21T11:34:08;14.30;;;12.25;;
37065;SDS011;22981;43.080;25.550;2024-02-21T11:36:46;14.60;;;11.88;;
37065;SDS011;22981;43.080;25.550;2024-02-21T11:39:19;13.93;;;11.68;;
37065;SDS011;22981;43.080;25.550;2024-02-21T11:41:47;16.07;;;12.35;;
37065;SDS011;22981;43.080;25.550;2024-02-21T11:44:31;12.07;;;10.85;;
37065;SDS011;22981;43.080;25.550;2024-02-21T11:46:59;12.85;;;11.30;;
37065;SDS011;22981;43.080;25.550;2024-02-21T11:49:29;15.40;;;11.65;;
37065;SDS011;22981;43.080;25.550;2024-02-21T11:51:57;15.18;;;11.85;;
37065;SDS011;22981;43.080;25.550;2024-02-21T11:54:27;12.50;;;10.38;;
37065;SDS011;22981;43.080;25.550;2024-02-21T11:56:54;12.70;;;10.40;;
37065;SDS011;22981;43.080;25.550;2024-02-21T11:59:22;11.25;;;10.08;;
37065;SDS011;22981;43.080;25.550;2024-02-21T12:01:49;12.75;;;10.45;;
37065;SDS011;22981;43.080;25.550;2024-02-21T12:04:18;12.00;;;10.40;;
37065;SDS011;22981;43.080;25.550;2024-02-21T12:06:46;13.70;;;10.48;;
37065;SDS011;22981;43.080;25.550;2024-02-21T12:09:14;11.48;;;9.80;;
37065;SDS011;22981;43.080;25.550;2024-02-21T12:11:45;13.78;;;11.35;;
37065;SDS011;22981;43.080;25.550;2024-02-21T12:14:17;26.12;;;19.60;;
37065;SDS011;22981;43.080;25.550;2024-02-21T12:16:44;15.65;;;12.45;;
37065;SDS011;22981;43.080;25.550;2024-02-21T12:19:13;14.05;;;10.90;;
37065;SDS011;22981;43.080;25.550;2024-02-21T12:21:42;12.20;;;10.53;;
37065;SDS011;22981;43.080;25.550;2024-02-21T12:26:53;9.58;;;7.70;;
37065;SDS011;22981;43.080;25.550;2024-02-21T12:29:23;12.25;;;9.35;;
37065;SDS011;22981;43.080;25.550;2024-02-21T12:31:51;13.43;;;11.25;;
37065;SDS011;22981;43.080;25.550;2024-02-21T12:34:20;13.30;;;11.10;;
37065;SDS011;22981;43.080;25.550;2024-02-21T12:36:50;14.18;;;10.40;;
37065;SDS011;22981;43.080;25.550;2024-02-21T12:39:18;10.25;;;9.15;;
37065;SDS011;22981;43.080;25.550;2024-02-21T12:41:45;12.53;;;10.23;;
37065;SDS011;22981;43.080;25.550;2024-02-21T12:44:13;10.40;;;9.03;;
37065;SDS011;22981;43.080;25.550;2024-02-21T12:46:41;11.95;;;9.85;;
37065;SDS011;22981;43.080;25.550;2024-02-21T12:49:09;13.30;;;10.32;;
37065;SDS011;22981;43.080;25.550;2024-02-21T12:51:37;16.32;;;11.88;;
37065;SDS011;22981;43.080;25.550;2024-02-21T12:54:05;13.50;;;10.95;;
37065;SDS011;22981;43.080;25.550;2024-02-21T12:56:34;13.62;;;11.93;;
37065;SDS011;22981;43.080;25.550;2024-02-21T12:59:02;11.28;;;9.10;;
37065;SDS011;22981;43.080;25.550;2024-02-21T13:01:30;10.80;;;9.20;;
37065;SDS011;22981;43.080;25.550;2024-02-21T13:03:58;9.13;;;7.78;;
37065;SDS011;22981;43.080;25.550;2024-02-21T13:06:26;10.88;;;8.83;;
37065;SDS011;22981;43.080;25.550;2024-02-21T13:08:54;11.35;;;8.15;;
37065;SDS011;22981;43.080;25.550;2024-02-21T13:11:21;9.93;;;8.25;;
37065;SDS011;22981;43.080;25.550;2024-02-21T13:13:50;10.32;;;8.58;;
37065;SDS011;22981;43.080;25.550;2024-02-21T13:16:18;11.03;;;7.72;;
37065;SDS011;22981;43.080;25.550;2024-02-21T13:18:46;11.80;;;7.72;;
37065;SDS011;22981;43.080;25.550;2024-02-21T13:21:14;8.68;;;7.78;;
37065;SDS011;22981;43.080;25.550;2024-02-21T13:23:41;14.03;;;9.35;;
37065;SDS011;22981;43.080;25.550;2024-02-21T13:26:10;9.33;;;7.30;;
37065;SDS011;22981;43.080;25.550;2024-02-21T13:28:38;10.70;;;6.17;;
37065;SDS011;22981;43.080;25.550;2024-02-21T13:31:05;10.45;;;7.72;;
37065;SDS011;22981;43.080;25.550;2024-02-21T13:33:33;7.10;;;6.40;;
37065;SDS011;22981;43.080;25.550;2024-02-21T13:36:02;9.43;;;7.50;;
37065;SDS011;22981;43.080;25.550;2024-02-21T13:38:29;10.95;;;8.53;;
37065;SDS011;22981;43.080;25.550;2024-02-21T13:40:57;9.83;;;7.72;;
37065;SDS011;22981;43.080;25.550;2024-02-21T13:43:25;7.90;;;7.10;;
37065;SDS011;22981;43.080;25.550;2024-02-21T13:46:00;8.18;;;7.37;;
37065;SDS011;22981;43.080;25.550;2024-02-21T13:48:30;8.60;;;7.40;;
37065;SDS011;22981;43.080;25.550;2024-02-21T13:50:58;8.58;;;7.35;;
37065;SDS011;22981;43.080;25.550;2024-02-21T13:53:28;9.85;;;8.10;;
37065;SDS011;22981;43.080;25.550;2024-02-21T13:55:55;8.45;;;7.65;;
37065;SDS011;22981;43.080;25.550;2024-02-21T13:58:23;9.58;;;7.30;;
37065;SDS011;22981;43.080;25.550;2024-02-21T14:00:51;44.33;;;39.98;;
37065;SDS011;22981;43.080;25.550;2024-02-21T14:03:19;15.88;;;14.28;;
37065;SDS011;22981;43.080;25.550;2024-02-21T14:05:47;10.43;;;9.33;;
37065;SDS011;22981;43.080;25.550;2024-02-21T14:08:14;10.15;;;8.70;;
37065;SDS011;22981;43.080;25.550;2024-02-21T14:10:42;9.43;;;8.35;;
37065;SDS011;22981;43.080;25.550;2024-02-21T14:13:09;9.35;;;8.25;;
37065;SDS011;22981;43.080;25.550;2024-02-21T14:15:37;9.25;;;8.00;;
37065;SDS011;22981;43.080;25.550;2024-02-21T14:18:06;9.13;;;7.08;;
37065;SDS011;22981;43.080;25.550;2024-02-21T14:20:35;9.70;;;7.80;;
37065;SDS011;22981;43.080;25.550;2024-02-21T14:23:02;24.55;;;18.48;;